Time;durP1;ratioP1;P1;durP2;ratioP2;P2;SDS_P1;SDS_P2;PMS_P1;PMS_P2;Temp;Humidity;BMP_temperature;BMP_pressure;BME280_temperature;BME280_humidity;BME280_pressure;Samples;Min_cycle;Max_cycle;Signal;HPM_P1;HPM_P2
2023/03/21 00:01:26;;;;;;;37.00;24.30;;;;;;;8.83;83.21;100361.70;103659;280;39672;-72
2023/03/21 00:04:00;;;;;;;31.90;22.20;;;;;;;8.82;83.20;100359.30;103533;281;38685;-70
2023/03/21 00:06:35;;;;;;;32.70;22.90;;;;;;;8.81;83.24;100361.77;103598;280;38310;-71
2023/03/21 00:09:09;;;;;;;32.50;23.20;;;;;;;8.79;83.18;100359.75;103653;280;39955;-70
2023/03/21 00:11:43;;;;;;;32.80;21.80;;;;;;;8.79;83.25;100360.08;103659;280;38216;-71
2023/03/21 00:14:19;;;;;;;32.50;23.70;;;;;;;8.82;83.29;100356.00;103674;280;38582;-73
2023/03/21 00:16:53;;;;;;;32.40;22.20;;;;;;;8.81;83.24;100356.73;103615;280;39658;-71
2023/03/21 00:19:31;;;;;;;33.30;21.00;;;;;;;8.79;83.12;100349.67;103639;280;38701;-69
2023/03/21 00:22:12;;;;;;;30.80;21.50;;;;;;;8.79;83.20;100352.94;103486;280;38376;-70
2023/03/21 00:24:46;;;;;;;31.10;20.40;;;;;;;8.81;83.14;100352.73;103650;280;38418;-72
2023/03/21 00:27:21;;;;;;;33.70;21.80;;;;;;;8.82;83.22;100347.65;103654;280;38494;-72
2023/03/21 00:29:55;;;;;;;32.20;22.70;;;;;;;8.82;83.17;100344.88;103694;280;38324;-73
2023/03/21 00:32:30;;;;;;;33.50;22.60;;;;;;;8.79;83.15;100342.70;103694;280;39273;-73
2023/03/21 00:35:04;;;;;;;30.70;20.90;;;;;;;8.78;83.07;100344.46;103668;280;38495;-72
2023/03/21 00:37:38;;;;;;;30.60;21.50;;;;;;;8.78;83.12;100339.77;103650;280;39882;-72
2023/03/21 00:40:14;;;;;;;34.60;22.90;;;;;;;8.77;83.05;100342.39;103663;280;38945;-70
2023/03/21 00:42:48;;;;;;;34.70;24.20;;;;;;;8.75;82.84;100342.11;103632;280;38527;-72
2023/03/21 00:45:23;;;;;;;31.70;22.00;;;;;;;8.72;82.87;100344.47;103672;280;39579;-70
2023/03/21 00:47:57;;;;;;;34.70;22.80;;;;;;;8.67;83.00;100342.54;103651;280;39710;-70
2023/03/21 00:50:31;;;;;;;32.20;22.30;;;;;;;8.67;83.03;100340.11;103684;280;38250;-72
2023/03/21 00:53:05;;;;;;;31.70;22.20;;;;;;;8.69;83.12;100342.13;103648;280;39433;-72
2023/03/21 00:55:39;;;;;;;37.10;23.70;;;;;;;8.71;83.27;100343.30;103753;280;38621;-72
2023/03/21 00:58:13;;;;;;;32.60;22.20;;;;;;;8.68;83.08;100342.68;103649;280;38671;-72
2023/03/21 01:00:48;;;;;;;33.70;21.70;;;;;;;8.66;83.04;100340.67;103671;280;38618;-73
2023/03/21 01:03:25;;;;;;;34.50;21.90;;;;;;;8.64;83.07;100341.24;103680;280;38444;-71
2023/03/21 01:06:05;;;;;;;35.60;22.30;;;;;;;8.63;83.00;100338.83;103702;280;38260;-73
2023/03/21 01:08:41;;;;;;;33.90;22.60;;;;;;;8.65;83.16;100337.40;103671;280;38244;-72
2023/03/21 01:11:16;;;;;;;37.50;23.00;;;;;;;8.66;83.33;100337.02;103744;280;38246;-71
2023/03/21 01:13:51;;;;;;;33.70;21.50;;;;;;;8.63;83.11;100335.70;103703;280;38412;-69
2023/03/21 01:16:24;;;;;;;31.90;22.50;;;;;;;8.59;83.13;100336.54;103618;280;40038;-69
2023/03/21 01:18:58;;;;;;;29.70;20.70;;;;;;;8.56;83.25;100331.75;103640;280;38464;-71
2023/03/21 01:21:32;;;;;;;31.30;20.30;;;;;;;8.56;83.46;100334.18;103633;280;39407;-71
2023/03/21 01:24:08;;;;;;;34.50;22.50;;;;;;;8.57;83.33;100332.60;103671;280;38512;-69
2023/03/21 01:26:42;;;;;;;31.40;21.00;;;;;;;8.55;83.34;100330.58;103498;280;39584;-69
2023/03/21 01:29:16;;;;;;;33.30;20.80;;;;;;;8.51;83.30;100329.30;103653;280;40090;-71
2023/03/21 01:31:51;;;;;;;27.10;19.00;;;;;;;8.48;83.27;100329.38;103663;280;38606;-71
2023/03/21 01:34:26;;;;;;;27.80;19.70;;;;;;;8.46;83.36;100329.09;103658;280;38218;-71
2023/03/21 01:37:00;;;;;;;30.30;20.30;;;;;;;8.46;83.44;100328.39;103621;280;39133;-72
2023/03/21 01:39:34;;;;;;;32.70;21.40;;;;;;;8.47;83.55;100325.60;103657;280;38551;-72
2023/03/21 01:42:09;;;;;;;30.80;21.00;;;;;;;8.45;83.53;100321.81;103652;280;38238;-72
2023/03/21 01:44:57;;;;;;;33.50;21.00;;;;;;;8.41;83.40;100325.27;103633;280;39626;-70
2023/03/21 01:47:31;;;;;;;29.50;19.80;;;;;;;8.34;83.38;100323.00;103606;280;38815;-72
2023/03/21 01:50:06;;;;;;;31.90;21.00;;;;;;;8.34;83.63;100320.55;103682;280;39399;-72
2023/03/21 01:52:41;;;;;;;31.40;20.50;;;;;;;8.37;83.79;100321.71;103667;280;38443;-71
2023/03/21 01:55:16;;;;;;;31.50;20.60;;;;;;;8.35;83.83;100316.36;103683;280;39386;-72
2023/03/21 01:57:53;;;;;;;33.00;20.70;;;;;;;8.35;84.00;100314.80;103679;280;38562;-70
2023/03/21 02:00:28;;;;;;;28.90;19.50;;;;;;;8.34;83.85;100315.86;103574;280;38262;-72
2023/03/21 02:03:03;;;;;;;29.00;19.70;;;;;;;8.36;84.09;100315.81;103538;280;38359;-72
2023/03/21 02:05:44;;;;;;;29.00;20.40;;;;;;;8.37;83.99;100313.01;103697;280;39101;-72
2023/03/21 02:08:19;;;;;;;31.50;20.70;;;;;;;8.36;84.22;100313.38;103687;280;39660;-72
2023/03/21 02:10:53;;;;;;;31.80;21.40;;;;;;;8.37;84.24;100311.47;103679;280;39945;-72
2023/03/21 02:13:27;;;;;;;30.20;19.80;;;;;;;8.37;84.32;100310.08;103663;280;38476;-72
2023/03/21 02:16:06;;;;;;;28.50;18.80;;;;;;;8.36;84.29;100311.48;103680;280;38366;-71
2023/03/21 02:18:41;;;;;;;;;;;;;;;8.37;84.12;100314.42;103514;280;39648;-71
2023/03/21 02:21:42;;;;;;;32.70;20.50;;;;;;;8.31;84.21;100314.55;103641;280;39401;-71
2023/03/21 02:25:02;;;;;;;31.30;20.40;;;;;;;8.28;84.28;100319.17;103617;280;38255;-71
2023/03/21 02:27:38;;;;;;;32.70;20.80;;;;;;;8.26;84.50;100322.88;103596;280;38636;-71
2023/03/21 02:30:41;;;;;;;29.20;19.80;;;;;;;8.24;84.70;100326.21;103635;280;38633;-71
2023/03/21 02:34:06;;;;;;;25.70;18.10;;;;;;;8.24;84.77;100321.20;103587;280;39412;-69
2023/03/21 02:37:04;;;;;;;22.50;16.90;;;;;;;8.29;84.92;100320.52;103584;280;38521;-71
2023/03/21 02:39:48;;;;;;;23.60;17.10;;;;;;;8.38;85.04;100321.17;103547;280;38847;-71
2023/03/21 02:42:25;;;;;;;24.70;17.50;;;;;;;8.45;84.91;100317.46;103602;269;38637;-71
2023/03/21 02:45:03;;;;;;;25.20;17.80;;;;;;;8.47;84.80;100318.80;103518;280;39608;-72
2023/03/21 02:47:39;;;;;;;26.40;16.90;;;;;;;8.48;84.65;100313.92;103524;282;38285;-71
2023/03/21 02:50:15;;;;;;;21.70;15.30;;;;;;;8.49;84.54;100313.02;103651;280;38434;-69
2023/03/21 02:52:51;;;;;;;24.10;16.40;;;;;;;8.47;84.31;100317.77;103572;280;39927;-71
2023/03/21 02:55:26;;;;;;;22.30;16.00;;;;;;;8.45;84.34;100319.54;103646;280;38601;-71
2023/03/21 02:58:00;;;;;;;22.00;15.40;;;;;;;8.46;84.51;100320.77;103640;280;40153;-71
2023/03/21 03:00:35;;;;;;;21.70;16.10;;;;;;;8.48;84.58;100321.73;103645;280;38499;-71
2023/03/21 03:03:11;;;;;;;22.00;16.10;;;;;;;8.50;84.53;100326.18;103525;282;39718;-71
2023/03/21 03:05:48;;;;;;;21.70;15.50;;;;;;;8.50;84.46;100323.73;103622;280;39443;-71
2023/03/21 03:08:29;;;;;;;21.50;14.30;;;;;;;8.52;84.32;100322.83;103594;280;39418;-69
2023/03/21 03:11:14;;;;;;;22.10;15.90;;;;;;;8.56;84.29;100326.88;103614;280;38549;-72
2023/03/21 03:14:05;;;;;;;23.00;15.90;;;;;;;8.57;84.27;100332.77;103621;280;38431;-73
2023/03/21 03:16:43;;;;;;;23.30;15.50;;;;;;;8.56;84.18;100331.23;103610;280;38368;-71
2023/03/21 03:19:23;;;;;;;24.20;16.30;;;;;;;8.54;84.17;100331.48;103636;280;38303;-70
2023/03/21 03:22:01;;;;;;;23.70;15.80;;;;;;;8.52;84.28;100333.78;103661;280;38245;-72
2023/03/21 03:24:39;;;;;;;19.10;14.30;;;;;;;8.51;84.14;100335.52;103640;280;38576;-69
2023/03/21 03:27:16;;;;;;;21.10;15.50;;;;;;;8.55;84.17;100337.33;103532;280;188554;-71
2023/03/21 03:29:50;;;;;;;22.80;15.70;;;;;;;8.57;84.16;100335.72;103645;280;39315;-70
2023/03/21 03:32:29;;;;;;;21.50;15.80;;;;;;;8.52;84.01;100330.64;103534;280;188706;-71
2023/03/21 03:35:04;;;;;;;22.30;15.30;;;;;;;8.49;84.06;100329.34;103652;280;38429;-71
2023/03/21 03:37:39;;;;;;;20.10;15.30;;;;;;;8.48;84.09;100334.09;103648;280;38685;-70
2023/03/21 03:40:17;;;;;;;19.20;13.70;;;;;;;8.48;84.11;100334.41;103677;269;38434;-71
2023/03/21 03:42:53;;;;;;;21.50;15.80;;;;;;;8.51;84.06;100337.79;103549;280;39437;-73
2023/03/21 03:45:30;;;;;;;19.80;14.90;;;;;;;8.52;84.14;100340.20;103629;280;40211;-73
2023/03/21 03:48:07;;;;;;;23.40;16.60;;;;;;;8.56;84.12;100340.45;103557;280;38950;-72
2023/03/21 03:50:42;;;;;;;20.60;14.80;;;;;;;8.58;84.04;100341.80;103670;280;38494;-73
2023/03/21 03:53:22;;;;;;;21.20;15.00;;;;;;;8.57;83.94;100345.61;103597;280;39671;-72
2023/03/21 03:55:56;;;;;;;20.00;15.10;;;;;;;8.53;83.82;100340.71;103671;280;39973;-70
2023/03/21 03:58:31;;;;;;;18.80;14.60;;;;;;;8.52;83.87;100339.86;102962;280;905320;-72
2023/03/21 04:01:07;;;;;;;19.80;14.70;;;;;;;8.51;83.84;100339.39;103632;280;38233;-70
2023/03/21 04:03:45;;;;;;;20.30;15.60;;;;;;;8.48;83.92;100342.93;103607;280;38775;-69
2023/03/21 04:06:21;;;;;;;21.30;15.90;;;;;;;8.43;83.98;100344.30;103525;280;175330;-73
2023/03/21 04:08:56;;;;;;;20.80;14.70;;;;;;;8.39;83.98;100343.21;103534;280;39547;-71
2023/03/21 04:11:30;;;;;;;21.50;15.80;;;;;;;8.37;84.20;100339.77;103557;280;39470;-72
2023/03/21 04:14:05;;;;;;;27.10;18.00;;;;;;;8.37;84.27;100339.78;103531;281;38267;-71
2023/03/21 04:16:44;;;;;;;26.40;19.10;;;;;;;8.39;84.29;100341.13;103656;280;39487;-69
2023/03/21 04:19:21;;;;;;;23.90;17.90;;;;;;;8.36;84.30;100343.27;103694;280;38951;-71
2023/03/21 04:21:55;;;;;;;23.60;16.60;;;;;;;8.36;84.36;100341.54;103638;280;38266;-71
2023/03/21 04:24:32;;;;;;;20.60;15.30;;;;;;;8.34;84.34;100340.56;103547;280;172626;-71
2023/03/21 04:27:09;;;;;;;18.60;14.10;;;;;;;8.34;84.40;100342.30;103645;280;38163;-69
2023/03/21 04:29:44;;;;;;;18.70;14.10;;;;;;;8.35;84.55;100342.42;103666;280;38849;-69
2023/03/21 04:32:23;;;;;;;18.80;14.40;;;;;;;8.34;84.57;100342.27;103668;280;38481;-70
2023/03/21 04:34:58;;;;;;;20.50;14.30;;;;;;;8.34;84.41;100344.39;103626;280;38240;-72
2023/03/21 04:37:35;;;;;;;18.80;14.40;;;;;;;8.33;84.56;100342.85;103630;280;38554;-72
2023/03/21 04:40:16;;;;;;;18.30;13.50;;;;;;;8.35;84.62;100341.23;103499;280;174997;-71
2023/03/21 04:42:51;;;;;;;15.60;13.10;;;;;;;8.35;84.64;100343.15;103612;280;38244;-70
2023/03/21 04:45:28;;;;;;;18.90;14.40;;;;;;;8.34;84.65;100344.56;103544;270;40123;-70
2023/03/21 04:48:03;;;;;;;18.90;15.00;;;;;;;8.34;84.73;100346.48;103607;295;38398;-71
2023/03/21 04:50:38;;;;;;;19.50;14.40;;;;;;;8.34;84.88;100342.11;103688;280;38472;-71
2023/03/21 04:53:20;;;;;;;18.50;14.20;;;;;;;8.36;84.84;100337.02;103562;280;38239;-72
2023/03/21 04:55:58;;;;;;;15.60;12.80;;;;;;;8.38;84.58;100342.73;103580;280;39473;-72
2023/03/21 04:58:35;;;;;;;17.10;13.10;;;;;;;8.37;84.62;100350.90;103693;280;39212;-69
2023/03/21 05:01:18;;;;;;;16.30;12.30;;;;;;;8.34;84.55;100348.71;103687;269;38225;-70
2023/03/21 05:03:57;;;;;;;14.60;12.80;;;;;;;8.34;84.59;100347.01;103740;280;38276;-73
2023/03/21 05:06:32;;;;;;;16.70;13.90;;;;;;;8.35;84.76;100349.73;103600;280;38720;-71
2023/03/21 05:09:07;;;;;;;17.40;13.50;;;;;;;8.34;84.52;100348.91;103707;280;38272;-69
2023/03/21 05:11:42;;;;;;;14.20;12.30;;;;;;;8.32;84.61;100353.64;103690;280;38763;-69
2023/03/21 05:14:20;;;;;;;15.10;12.20;;;;;;;8.33;84.79;100352.75;103743;280;38232;-69
2023/03/21 05:16:58;;;;;;;17.40;12.80;;;;;;;8.34;84.70;100355.15;103703;280;38384;-71
2023/03/21 05:19:34;;;;;;;16.80;12.90;;;;;;;8.34;84.73;100357.27;103702;280;39548;-72
2023/03/21 05:22:10;;;;;;;18.10;13.10;;;;;;;8.34;84.75;100361.23;103725;280;38349;-74
2023/03/21 05:24:48;;;;;;;16.90;12.50;;;;;;;8.34;84.78;100363.48;103641;280;175362;-73
2023/03/21 05:27:34;;;;;;;17.50;12.30;;;;;;;8.35;84.76;100362.96;103713;280;38273;-72
2023/03/21 05:30:13;;;;;;;15.00;11.90;;;;;;;8.35;84.69;100359.13;103724;280;39005;-71
2023/03/21 05:32:47;;;;;;;15.10;11.50;;;;;;;8.34;84.66;100365.77;103687;280;39449;-71
2023/03/21 05:35:32;;;;;;;17.10;12.60;;;;;;;8.35;84.81;100360.52;103697;280;38543;-71
2023/03/21 05:38:06;;;;;;;16.20;13.10;;;;;;;8.36;84.98;100365.55;103647;280;38273;-71
2023/03/21 05:40:42;;;;;;;17.10;12.20;;;;;;;8.36;84.95;100367.09;103741;280;38358;-71
2023/03/21 05:43:16;;;;;;;15.60;11.60;;;;;;;8.40;85.00;100373.27;103707;280;39374;-72
2023/03/21 05:45:51;;;;;;;14.10;11.60;;;;;;;8.44;85.04;100373.16;103729;280;38599;-71
2023/03/21 05:48:25;;;;;;;14.60;11.90;;;;;;;8.46;84.96;100374.29;103659;280;39746;-72
2023/03/21 05:51:05;;;;;;;16.50;13.00;;;;;;;8.52;85.15;100373.07;103725;280;38223;-72
2023/03/21 05:53:54;;;;;;;17.90;13.70;;;;;;;8.56;85.21;100376.96;103659;280;38850;-71
2023/03/21 05:56:29;;;;;;;16.60;12.50;;;;;;;8.54;85.11;100382.06;103557;282;38285;-71
2023/03/21 05:59:04;;;;;;;15.10;11.90;;;;;;;8.55;84.99;100384.63;103115;280;837364;-72
2023/03/21 06:01:38;;;;;;;15.30;11.70;;;;;;;8.58;85.03;100384.73;103714;280;38727;-71
2023/03/21 06:04:18;;;;;;;15.90;12.60;;;;;;;8.59;84.96;100390.09;103794;280;38789;-72
2023/03/21 06:06:53;;;;;;;17.90;14.10;;;;;;;8.60;84.86;100395.98;103738;280;38747;-71
2023/03/21 06:09:27;;;;;;;19.50;14.00;;;;;;;8.61;84.79;100394.39;103611;280;39655;-71
2023/03/21 06:12:05;;;;;;;17.10;13.60;;;;;;;8.63;84.83;100396.05;103718;280;38138;-73
2023/03/21 06:14:39;;;;;;;15.60;12.10;;;;;;;8.66;84.64;100400.98;103753;280;39466;-73
2023/03/21 06:17:14;;;;;;;15.30;11.40;;;;;;;8.69;84.53;100400.05;103570;281;38537;-69
2023/03/21 06:19:52;;;;;;;15.20;11.50;;;;;;;8.70;84.57;100402.11;103636;280;38475;-71
2023/03/21 06:22:27;;;;;;;15.90;12.20;;;;;;;8.70;84.52;100399.84;103612;280;38266;-70
2023/03/21 06:25:02;;;;;;;17.30;13.50;;;;;;;8.69;84.51;100404.73;103668;280;38654;-71
2023/03/21 06:27:37;;;;;;;18.20;13.00;;;;;;;8.69;84.59;100404.91;103514;281;38796;-71
2023/03/21 06:30:15;;;;;;;15.10;11.40;;;;;;;8.69;84.52;100407.70;103556;280;39977;-70
2023/03/21 06:32:50;;;;;;;14.80;11.80;;;;;;;8.69;84.44;100407.02;103521;280;40161;-71
2023/03/21 06:35:25;;;;;;;13.00;10.50;;;;;;;8.70;84.48;100408.38;103551;281;39989;-72
2023/03/21 06:38:00;;;;;;;13.70;10.10;;;;;;;8.72;84.35;100414.39;103542;281;38999;-71
2023/03/21 06:40:34;;;;;;;12.80;10.30;;;;;;;8.74;84.29;100414.15;103474;281;172607;-71
2023/03/21 06:43:09;;;;;;;11.60;9.80;;;;;;;8.76;84.41;100412.53;103525;281;38362;-71
2023/03/21 06:45:43;;;;;;;12.80;9.80;;;;;;;8.76;84.28;100414.78;103514;269;38312;-70
2023/03/21 06:48:17;;;;;;;13.80;10.10;;;;;;;8.73;84.11;100419.41;103380;281;175366;-69
2023/03/21 06:50:55;;;;;;;12.60;10.50;;;;;;;8.69;84.05;100418.31;103570;281;38351;-72
2023/03/21 06:53:30;;;;;;;13.40;10.90;;;;;;;8.69;84.38;100421.61;103529;281;39683;-71
2023/03/21 06:56:05;;;;;;;12.60;10.60;;;;;;;8.70;84.37;100422.98;103576;281;40324;-72
2023/03/21 06:58:39;;;;;;;12.30;10.60;;;;;;;8.69;84.30;100427.00;103525;281;40101;-71
2023/03/21 07:01:14;;;;;;;12.00;10.30;;;;;;;8.69;84.47;100429.42;103561;281;38281;-69
2023/03/21 07:03:50;;;;;;;12.40;9.70;;;;;;;8.70;84.52;100430.63;103547;281;38613;-70
2023/03/21 07:06:25;;;;;;;11.50;9.80;;;;;;;8.72;84.51;100436.48;103555;281;38315;-71
2023/03/21 07:08:59;;;;;;;12.80;9.70;;;;;;;8.75;84.62;100434.64;103543;281;38394;-72
2023/03/21 07:11:33;;;;;;;10.90;9.50;;;;;;;8.77;84.57;100431.11;103531;281;38246;-72
2023/03/21 07:14:07;;;;;;;10.70;9.60;;;;;;;8.81;84.53;100434.65;103552;281;38429;-73
2023/03/21 07:16:41;;;;;;;10.40;8.90;;;;;;;8.85;84.67;100433.15;103485;281;38252;-72
2023/03/21 07:19:15;;;;;;;10.60;9.00;;;;;;;8.89;84.74;100433.36;103526;281;38666;-72
2023/03/21 07:21:49;;;;;;;10.50;8.90;;;;;;;8.97;84.81;100435.02;103586;280;39652;-70
2023/03/21 07:24:26;;;;;;;11.80;9.20;;;;;;;9.04;84.62;100434.30;103658;280;39063;-71
2023/03/21 07:27:00;;;;;;;10.70;9.20;;;;;;;9.13;84.62;100438.38;103653;280;38367;-71
2023/03/21 07:29:34;;;;;;;10.20;8.70;;;;;;;9.20;84.88;100436.76;103566;282;38231;-71
2023/03/21 07:32:09;;;;;;;9.50;8.50;;;;;;;9.28;84.92;100439.63;103605;280;38460;-72
2023/03/21 07:34:43;;;;;;;9.90;8.10;;;;;;;9.41;85.06;100436.63;103674;280;38753;-72
2023/03/21 07:37:17;;;;;;;10.40;8.50;;;;;;;9.57;85.12;100433.51;103600;280;38499;-72
2023/03/21 07:39:51;;;;;;;10.00;8.90;;;;;;;9.72;85.09;100432.64;103624;280;40368;-72
2023/03/21 07:42:25;;;;;;;10.00;8.60;;;;;;;9.89;84.80;100429.29;103623;280;39406;-70
2023/03/21 07:44:59;;;;;;;10.40;8.80;;;;;;;10.00;84.46;100430.65;103620;280;38254;-73
2023/03/21 07:47:33;;;;;;;11.80;8.80;;;;;;;10.07;84.15;100426.03;103577;269;38257;-72
2023/03/21 07:50:08;;;;;;;10.30;7.80;;;;;;;10.19;83.97;100426.66;103498;280;38986;-72
2023/03/21 07:52:43;;;;;;;9.80;8.20;;;;;;;10.32;83.70;100431.46;103632;280;38262;-72
2023/03/21 07:55:17;;;;;;;8.60;7.70;;;;;;;10.39;82.85;100433.47;103583;280;38256;-72
2023/03/21 07:57:52;;;;;;;10.90;8.80;;;;;;;10.42;82.48;100436.01;103529;280;175237;-71
2023/03/21 08:00:27;;;;;;;8.90;8.00;;;;;;;10.44;82.37;100440.27;103671;280;38568;-72
2023/03/21 08:03:01;;;;;;;10.90;8.10;;;;;;;10.46;81.86;100446.84;103652;280;38224;-72
2023/03/21 08:05:38;;;;;;;8.60;7.60;;;;;;;10.42;81.25;100445.92;103632;280;38742;-70
2023/03/21 08:08:12;;;;;;;8.20;6.90;;;;;;;10.40;81.35;100445.85;103531;280;38731;-68
2023/03/21 08:10:47;;;;;;;7.90;7.10;;;;;;;10.33;80.63;100449.55;103636;280;38254;-71
2023/03/21 08:13:22;;;;;;;9.10;7.60;;;;;;;10.27;80.72;100451.87;103612;280;39792;-71
2023/03/21 08:15:56;;;;;;;9.10;7.90;;;;;;;10.20;80.47;100450.17;103623;280;38650;-69
2023/03/21 08:18:30;;;;;;;9.90;8.50;;;;;;;10.18;81.02;100453.05;102985;280;906513;-71
2023/03/21 08:21:04;;;;;;;8.50;7.50;;;;;;;10.19;81.36;100447.94;103552;282;38808;-72
2023/03/21 08:23:38;;;;;;;8.70;7.80;;;;;;;10.22;81.03;100448.00;103642;280;39655;-72
2023/03/21 08:26:17;;;;;;;8.10;7.30;;;;;;;10.29;81.23;100448.83;103605;280;40437;-71
2023/03/21 08:28:53;;;;;;;8.60;7.70;;;;;;;10.44;81.60;100446.38;103529;282;39173;-70
2023/03/21 08:31:27;;;;;;;10.30;7.40;;;;;;;10.60;81.60;100447.55;103659;280;38525;-72
2023/03/21 08:34:01;;;;;;;8.70;7.60;;;;;;;10.81;81.85;100450.76;103631;280;39482;-72
2023/03/21 08:36:36;;;;;;;8.40;7.40;;;;;;;11.06;81.96;100447.70;103659;280;38320;-72
2023/03/21 08:39:10;;;;;;;9.40;7.80;;;;;;;11.32;81.57;100448.28;103654;280;38908;-70
2023/03/21 08:41:44;;;;;;;7.90;7.10;;;;;;;11.50;80.96;100451.22;103710;280;38397;-72
2023/03/21 08:44:19;;;;;;;8.10;7.40;;;;;;;11.64;79.95;100453.60;103690;280;38520;-71
2023/03/21 08:46:52;;;;;;;8.20;6.50;;;;;;;11.68;78.74;100458.50;103512;280;38537;-73
2023/03/21 08:49:26;;;;;;;7.90;6.90;;;;;;;11.65;77.86;100464.95;103572;281;38331;-72
2023/03/21 08:52:01;;;;;;;8.50;7.30;;;;;;;11.55;77.17;100465.52;103660;280;39702;-71
2023/03/21 08:54:34;;;;;;;10.20;8.60;;;;;;;11.50;77.31;100469.38;103667;280;38636;-73
2023/03/21 08:57:09;;;;;;;11.00;8.50;;;;;;;11.47;77.07;100473.54;103645;280;39686;-72
2023/03/21 08:59:44;;;;;;;9.50;8.20;;;;;;;11.38;76.76;100474.38;103683;280;38423;-72
2023/03/21 09:02:18;;;;;;;7.70;6.90;;;;;;;11.31;76.70;100477.46;103654;280;38285;-72
2023/03/21 09:04:53;;;;;;;8.30;7.50;;;;;;;11.29;76.46;100481.20;103573;280;39944;-72
2023/03/21 09:07:27;;;;;;;8.30;7.40;;;;;;;11.20;76.16;100481.05;103675;280;38584;-73
2023/03/21 09:10:01;;;;;;;8.20;7.10;;;;;;;11.12;76.23;100478.73;103715;280;38509;-72
2023/03/21 09:12:37;;;;;;;7.60;6.90;;;;;;;11.07;76.48;100481.38;103523;282;38733;-72
2023/03/21 09:15:13;;;;;;;9.50;7.30;;;;;;;11.06;77.00;100480.19;103674;280;39713;-71
2023/03/21 09:17:51;;;;;;;7.30;6.40;;;;;;;11.03;76.72;100479.60;103624;280;38795;-72
2023/03/21 09:20:29;;;;;;;7.50;6.80;;;;;;;10.99;76.41;100483.41;103700;280;39328;-72
2023/03/21 09:23:03;;;;;;;7.70;6.90;;;;;;;10.97;76.85;100486.48;103676;269;39391;-71
2023/03/21 09:25:37;;;;;;;7.30;6.60;;;;;;;10.95;76.57;100492.33;103656;280;39371;-72
2023/03/21 09:28:12;;;;;;;7.10;6.40;;;;;;;10.86;75.86;100492.45;103660;280;38369;-72
2023/03/21 09:30:46;;;;;;;7.60;6.80;;;;;;;10.76;75.84;100492.65;103703;280;38586;-72
2023/03/21 09:33:20;;;;;;;8.30;6.30;;;;;;;10.74;76.02;100500.23;103659;280;39406;-72
2023/03/21 09:35:53;;;;;;;7.00;6.30;;;;;;;10.73;76.44;100500.12;103613;280;38496;-72
2023/03/21 09:38:36;;;;;;;8.20;6.10;;;;;;;10.77;76.55;100499.26;103502;280;38724;-71
2023/03/21 09:41:25;;;;;;;7.40;6.40;;;;;;;10.81;76.33;100500.69;103687;280;39383;-69
2023/03/21 09:44:10;;;;;;;7.50;6.20;;;;;;;10.83;76.36;100498.13;103660;280;38357;-71
2023/03/21 09:46:48;;;;;;;7.70;6.70;;;;;;;10.81;76.02;100500.50;103625;280;38705;-71
2023/03/21 09:49:24;;;;;;;8.30;7.00;;;;;;;10.77;76.15;100499.95;103669;280;39419;-72
2023/03/21 09:51:58;;;;;;;8.30;6.80;;;;;;;10.70;75.86;100498.80;103664;280;39777;-71
2023/03/21 09:54:34;;;;;;;7.40;6.60;;;;;;;10.64;76.06;100497.64;103627;280;38640;-71
2023/03/21 09:57:18;;;;;;;7.90;7.00;;;;;;;10.62;76.18;100500.14;103676;280;38576;-72
2023/03/21 09:59:53;;;;;;;7.90;6.80;;;;;;;10.59;76.12;100503.58;103609;269;39698;-71
2023/03/21 10:02:38;;;;;;;9.00;8.10;;;;;;;10.55;76.10;100501.95;103626;280;38498;-71
2023/03/21 10:05:19;;;;;;;8.70;7.20;;;;;;;10.54;76.35;100507.05;103643;280;38616;-72
2023/03/21 10:07:57;;;;;;;8.50;7.70;;;;;;;10.48;76.42;100508.47;103512;280;38807;-71
2023/03/21 10:10:35;;;;;;;5.70;5.20;;;;;;;10.36;76.45;100511.90;103646;280;38281;-72
2023/03/21 10:13:14;;;;;;;4.50;3.90;;;;;;;10.19;76.40;100517.48;103628;280;39458;-72
2023/03/21 10:15:48;;;;;;;4.40;4.00;;;;;;;10.04;76.56;100519.76;103686;280;38370;-71
2023/03/21 10:18:26;;;;;;;4.40;4.00;;;;;;;9.93;77.14;100517.33;103600;280;39853;-73
2023/03/21 10:21:00;;;;;;;5.80;4.70;;;;;;;9.92;77.75;100518.23;103616;280;38476;-71
2023/03/21 10:23:34;;;;;;;5.60;4.70;;;;;;;9.93;78.45;100516.98;103601;280;38209;-71
2023/03/21 10:26:09;;;;;;;6.30;4.60;;;;;;;10.05;79.49;100518.33;103619;280;39646;-72
2023/03/21 10:28:45;;;;;;;5.50;4.80;;;;;;;10.19;80.19;100515.93;103620;280;38282;-73
2023/03/21 10:31:23;;;;;;;7.20;4.60;;;;;;;10.36;80.37;100517.64;103532;280;38260;-73
2023/03/21 10:33:59;;;;;;;5.00;4.50;;;;;;;10.55;80.99;100517.48;103558;281;38460;-73
2023/03/21 10:36:33;;;;;;;4.80;4.40;;;;;;;10.75;80.74;100516.44;103630;269;39618;-71
2023/03/21 10:39:13;;;;;;;5.10;4.60;;;;;;;10.91;80.40;100514.63;103631;280;38737;-71
2023/03/21 10:41:47;;;;;;;5.30;4.70;;;;;;;11.05;79.76;100516.02;103589;280;39402;-72
2023/03/21 10:44:21;;;;;;;5.00;4.50;;;;;;;11.21;79.84;100519.23;103639;280;38231;-71
2023/03/21 10:46:57;;;;;;;4.70;4.30;;;;;;;11.33;79.46;100517.91;103578;280;38406;-72
2023/03/21 10:49:31;;;;;;;4.40;4.00;;;;;;;11.42;79.04;100520.51;103608;269;39010;-71
2023/03/21 10:52:10;;;;;;;4.80;4.30;;;;;;;11.46;78.85;100520.02;103594;280;39643;-72
2023/03/21 10:54:44;;;;;;;5.90;5.10;;;;;;;11.49;78.46;100518.33;103609;280;39404;-71
2023/03/21 10:57:20;;;;;;;5.20;4.70;;;;;;;11.50;78.54;100517.95;103591;280;38407;-71
2023/03/21 10:59:56;;;;;;;5.10;4.60;;;;;;;11.56;78.70;100521.00;103653;280;38730;-72
2023/03/21 11:02:33;;;;;;;5.40;4.80;;;;;;;11.62;78.31;100521.85;103609;280;39753;-72
2023/03/21 11:05:17;;;;;;;5.50;5.00;;;;;;;11.66;78.29;100520.46;103575;280;38413;-71
2023/03/21 11:07:57;;;;;;;5.40;5.00;;;;;;;11.79;78.52;100513.30;103595;280;39798;-72
2023/03/21 11:10:33;;;;;;;5.70;5.20;;;;;;;11.96;78.29;100510.54;103633;280;38524;-73
2023/03/21 11:13:17;;;;;;;5.50;5.00;;;;;;;12.04;77.55;100511.41;103599;280;38530;-73
2023/03/21 11:15:57;;;;;;;5.90;5.30;;;;;;;12.09;77.04;100514.35;103596;280;38579;-73
2023/03/21 11:18:34;;;;;;;5.30;4.80;;;;;;;12.12;76.95;100512.99;103615;280;38490;-72
2023/03/21 11:21:09;;;;;;;5.50;5.00;;;;;;;12.14;76.44;100515.54;103602;280;38244;-73
2023/03/21 11:23:46;;;;;;;5.10;4.60;;;;;;;12.22;76.66;100513.80;103611;280;38724;-72
2023/03/21 11:26:27;;;;;;;5.30;4.80;;;;;;;12.39;76.34;100507.48;103598;280;38399;-72
2023/03/21 11:29:01;;;;;;;5.40;4.90;;;;;;;12.63;75.85;100503.30;103594;281;39607;-71
2023/03/21 11:31:44;;;;;;;5.80;5.30;;;;;;;12.87;75.40;100502.34;103639;280;38462;-72
2023/03/21 11:34:28;;;;;;;5.10;4.60;;;;;;;13.05;74.83;100503.28;103632;280;38774;-71
2023/03/21 11:37:04;;;;;;;5.60;5.00;;;;;;;13.06;73.73;100499.94;103532;280;38741;-72
2023/03/21 11:39:39;;;;;;;5.50;5.00;;;;;;;12.97;72.82;100501.74;103625;280;39662;-72
2023/03/21 11:42:31;;;;;;;5.80;5.20;;;;;;;12.85;72.59;100500.86;103630;280;38410;-72
2023/03/21 11:45:15;;;;;;;5.00;4.60;;;;;;;12.74;72.07;100500.85;103655;280;38809;-73
2023/03/21 11:47:49;;;;;;;5.10;4.70;;;;;;;12.69;72.07;100498.80;103674;280;38270;-72
2023/03/21 11:50:32;;;;;;;5.60;5.10;;;;;;;12.66;72.34;100501.39;103636;280;38228;-73
2023/03/21 11:53:25;;;;;;;4.80;4.30;;;;;;;12.62;71.89;100497.21;103556;282;40159;-73
2023/03/21 11:56:22;;;;;;;4.60;4.20;;;;;;;12.62;72.11;100495.96;103659;280;38737;-73
2023/03/21 11:59:07;;;;;;;5.20;4.80;;;;;;;12.57;71.70;100495.81;103639;280;39583;-72
2023/03/21 12:01:51;;;;;;;5.00;4.60;;;;;;;12.51;71.18;100496.80;103655;280;39139;-73
2023/03/21 12:04:37;;;;;;;5.40;4.60;;;;;;;12.47;71.51;100498.06;103690;280;38354;-73